createdAt,value
2022-08-27T00:01:42.162Z,100447.09
2022-08-27T00:03:45.442Z,100553.22
2022-08-27T00:05:48.216Z,100520.53
2022-08-27T00:07:52.642Z,100536.78
2022-08-27T00:09:55.301Z,100559.50
2022-08-27T00:11:58.849Z,100524.16
2022-08-27T00:14:02.542Z,100561.44
2022-08-27T00:16:09.147Z,100553.06
2022-08-27T00:18:12.316Z,100428.97
2022-08-27T00:20:18.479Z,100541.88
2022-08-27T00:22:21.095Z,100531.00
2022-08-27T00:24:23.738Z,100536.25
2022-08-27T00:26:26.404Z,100523.88
2022-08-27T00:28:30.415Z,100535.91
2022-08-27T00:30:33.122Z,100411.78
2022-08-27T00:32:35.795Z,100525.03
2022-08-27T00:34:38.470Z,100503.09
2022-08-27T00:36:41.979Z,100429.69
2022-08-27T00:38:44.578Z,100488.25
2022-08-27T00:40:47.860Z,100395.06
2022-08-27T00:42:50.519Z,100484.69
2022-08-27T00:44:53.208Z,100543.13
2022-08-27T00:47:01.511Z,100537.09
2022-08-27T00:49:27.493Z,100521.00
2022-08-27T00:51:31.038Z,100500.94
2022-08-27T00:53:36.112Z,100532.25
2022-08-27T00:55:49.440Z,100508.22
2022-08-27T00:58:40.824Z,100539.00
2022-08-27T01:00:46.023Z,100465.53
2022-08-27T01:02:48.673Z,100498.53
2022-08-27T01:05:08.949Z,100472.97
2022-08-27T01:07:25.712Z,100523.41
2022-08-27T01:09:31.554Z,100525.28
2022-08-27T01:11:34.447Z,100437.06
2022-08-27T01:13:54.478Z,100533.06
2022-08-27T01:16:01.763Z,100416.09
2022-08-27T01:18:07.016Z,100429.88
2022-08-27T01:20:19.003Z,100500.91
2022-08-27T01:22:47.844Z,100519.38
2022-08-27T01:24:56.509Z,100484.34
2022-08-27T01:27:01.007Z,100433.38
2022-08-27T01:29:04.659Z,100490.84
2022-08-27T01:31:10.743Z,100542.75
2022-08-27T01:33:19.252Z,100509.75
2022-08-27T01:35:23.557Z,100542.44
2022-08-27T01:37:27.971Z,100540.06
2022-08-27T01:39:30.532Z,100541.16
2022-08-27T01:41:33.503Z,100516.06
2022-08-27T01:43:36.469Z,100517.34
2022-08-27T01:45:45.856Z,100538.66
2022-08-27T01:47:48.581Z,100451.19
2022-08-27T01:49:51.557Z,100522.25
2022-08-27T01:51:55.023Z,100447.56
2022-08-27T01:54:03.784Z,100434.16
2022-08-27T01:56:06.568Z,100425.97
2022-08-27T01:58:09.383Z,100488.63
2022-08-27T02:00:23.209Z,100548.25
2022-08-27T02:02:26.091Z,100500.59
2022-08-27T02:04:30.409Z,100372.13
2022-08-27T02:06:33.718Z,100529.03
2022-08-27T02:08:42.564Z,100515.47
2022-08-27T02:10:48.070Z,100521.44
2022-08-27T02:12:50.970Z,100528.88
2022-08-27T02:14:53.644Z,100538.16
2022-08-27T02:16:56.793Z,100550.31
2022-08-27T02:19:00.444Z,100531.38
2022-08-27T02:21:09.138Z,100433.63
2022-08-27T02:23:12.668Z,100556.75
2022-08-27T02:25:16.438Z,100555.81
2022-08-27T02:27:20.378Z,100508.28
2022-08-27T02:29:24.560Z,100551.09
2022-08-27T02:31:27.870Z,100519.03
2022-08-27T02:33:32.965Z,100552.16
2022-08-27T02:35:43.158Z,100540.38
2022-08-27T02:37:46.853Z,100558.03
2022-08-27T02:39:49.623Z,100547.22
2022-08-27T02:41:52.277Z,100517.59
2022-08-27T02:43:54.932Z,100424.34
2022-08-27T02:45:57.714Z,100475.03
2022-08-27T02:48:01.280Z,100441.59
2022-08-27T02:50:05.030Z,100499.22
2022-08-27T02:52:07.619Z,100456.00
2022-08-27T02:54:12.556Z,100450.28
2022-08-27T02:56:15.209Z,100524.50
2022-08-27T02:58:25.027Z,100525.94
2022-08-27T03:00:28.799Z,100532.09
2022-08-27T03:02:31.438Z,100441.00
2022-08-27T03:04:34.155Z,100451.25
2022-08-27T03:06:36.803Z,100512.84
2022-08-27T03:08:52.047Z,100556.78
2022-08-27T03:10:57.387Z,100514.78
2022-08-27T03:12:59.941Z,100436.78
2022-08-27T03:15:05.994Z,100447.81
2022-08-27T03:17:26.985Z,100467.56
2022-08-27T03:19:29.746Z,100527.75
2022-08-27T03:21:33.880Z,100550.31
2022-08-27T03:23:36.499Z,100516.88
2022-08-27T03:25:39.360Z,100547.03
2022-08-27T03:27:42.043Z,100512.31
2022-08-27T03:29:44.708Z,100535.81
2022-08-27T03:31:47.326Z,100429.59
2022-08-27T03:34:45.891Z,100539.31
2022-08-27T03:36:49.069Z,100442.84
2022-08-27T03:38:52.831Z,100522.56
2022-08-27T03:40:55.867Z,100538.03
2022-08-27T03:42:58.818Z,100488.50
2022-08-27T03:45:02.316Z,100476.47
2022-08-27T03:47:05.060Z,100529.53
2022-08-27T03:49:07.654Z,100514.69
2022-08-27T03:51:13.511Z,100535.84
2022-08-27T03:53:44.084Z,100534.41
2022-08-27T03:55:47.954Z,100524.13
2022-08-27T03:57:50.719Z,100436.88
2022-08-27T03:59:54.407Z,100469.69
2022-08-27T04:01:57.557Z,100496.34
2022-08-27T04:04:00.298Z,100505.97
2022-08-27T04:06:03.634Z,100535.00
2022-08-27T04:08:07.028Z,100420.06
2022-08-27T04:10:12.460Z,100422.31
2022-08-27T04:12:15.080Z,100499.34
2022-08-27T04:14:22.590Z,100530.28
2022-08-27T04:16:29.826Z,100533.94
2022-08-27T04:18:34.689Z,100497.31
2022-08-27T04:20:37.305Z,100494.34
2022-08-27T04:22:39.987Z,100508.66
2022-08-27T04:24:43.097Z,100445.97
2022-08-27T04:26:47.708Z,100460.56
2022-08-27T04:28:50.420Z,100451.19
2022-08-27T04:30:54.181Z,100448.00
2022-08-27T04:32:56.870Z,100414.25
2022-08-27T04:35:01.184Z,100546.53
2022-08-27T04:37:04.373Z,100414.25
2022-08-27T04:39:06.994Z,100439.16
2022-08-27T04:41:21.297Z,100548.41
2022-08-27T04:43:23.969Z,100551.88
2022-08-27T04:45:26.573Z,100485.66
2022-08-27T04:47:29.216Z,100552.84
2022-08-27T04:49:33.986Z,100553.13
2022-08-27T04:51:38.016Z,100554.22
2022-08-27T04:53:42.728Z,100425.13
2022-08-27T04:55:52.372Z,100520.81
2022-08-27T04:57:54.990Z,100536.72
2022-08-27T04:59:58.050Z,100555.84
2022-08-27T05:02:09.408Z,100474.25
2022-08-27T05:04:14.843Z,100467.88
2022-08-27T05:06:18.318Z,100468.09
2022-08-27T05:08:22.011Z,100540.75
2022-08-27T05:10:24.868Z,100442.38
2022-08-27T05:12:27.542Z,100425.19
2022-08-27T05:14:30.574Z,100451.94
2022-08-27T05:16:36.437Z,100543.22
2022-08-27T05:19:11.138Z,100538.94
2022-08-27T05:21:24.643Z,100477.38
2022-08-27T05:23:30.280Z,100553.31
2022-08-27T05:25:38.933Z,100542.59
2022-08-27T05:27:41.595Z,100545.28
2022-08-27T05:29:44.215Z,100513.53
2022-08-27T05:31:47.955Z,100416.66
2022-08-27T05:33:50.932Z,100433.53
2022-08-27T05:35:57.282Z,100531.72
2022-08-27T05:38:00.375Z,100493.81
2022-08-27T05:40:05.781Z,100536.47
2022-08-27T05:42:08.395Z,100517.53
2022-08-27T05:44:39.557Z,100525.56
2022-08-27T05:46:34.773Z,100506.75
2022-08-27T05:48:38.093Z,100539.28
2022-08-27T05:50:43.187Z,100546.72
2022-08-27T05:52:59.471Z,100522.66
2022-08-27T05:55:02.070Z,100510.84
2022-08-27T05:57:04.900Z,100513.19
2022-08-27T05:59:26.386Z,100455.72
2022-08-27T06:01:35.684Z,100525.94
2022-08-27T06:03:38.665Z,100524.38
2022-08-27T06:05:41.428Z,100461.09
2022-08-27T06:07:44.047Z,100444.22
2022-08-27T06:09:46.628Z,100513.66
2022-08-27T06:11:50.122Z,100469.94
2022-08-27T06:13:52.703Z,100541.13
2022-08-27T06:16:07.674Z,100570.31
2022-08-27T06:18:14.819Z,100462.22
2022-08-27T06:20:27.843Z,100522.00
2022-08-27T06:22:30.966Z,100532.72
2022-08-27T06:24:33.725Z,100547.72
2022-08-27T06:26:36.572Z,100556.59
2022-08-27T06:28:41.406Z,100549.22
2022-08-27T06:30:47.848Z,100554.13
2022-08-27T06:32:51.662Z,100565.16
2022-08-27T06:34:55.387Z,100532.97
2022-08-27T06:36:58.015Z,100492.53
2022-08-27T06:39:01.846Z,100568.28
2022-08-27T06:41:07.130Z,100485.59
2022-08-27T06:43:22.116Z,100537.38
2022-08-27T06:45:27.820Z,100538.97
2022-08-27T06:47:33.288Z,100473.44
2022-08-27T06:49:43.819Z,100494.41
2022-08-27T06:51:49.174Z,100561.53
2022-08-27T06:53:53.222Z,100567.66
2022-08-27T06:55:56.963Z,100550.81
2022-08-27T06:57:59.692Z,100458.16
2022-08-27T07:00:02.540Z,100573.38
2022-08-27T07:02:05.184Z,100554.41
2022-08-27T07:04:11.772Z,100589.91
2022-08-27T07:06:16.811Z,100588.81
2022-08-27T07:08:19.613Z,100558.97
2022-08-27T07:10:22.275Z,100550.31
2022-08-27T07:12:30.363Z,100565.78
2022-08-27T07:14:38.068Z,100592.13
2022-08-27T07:16:41.459Z,100514.88
2022-08-27T07:18:44.163Z,100554.25
2022-08-27T07:21:00.614Z,100577.91
2022-08-27T07:23:03.237Z,100529.09
2022-08-27T07:25:06.594Z,100604.91
2022-08-27T07:27:09.798Z,100608.06
2022-08-27T07:29:15.187Z,100601.59
2022-08-27T07:31:47.046Z,100565.94
2022-08-27T07:33:52.953Z,100605.25
2022-08-27T07:35:55.962Z,100557.47
2022-08-27T07:37:58.724Z,100499.06
2022-08-27T07:40:14.523Z,100575.94
2022-08-27T07:42:37.464Z,100480.91
2022-08-27T07:44:40.043Z,100602.13
2022-08-27T07:46:47.829Z,100604.03
2022-08-27T07:48:55.529Z,100581.94
2022-08-27T07:51:20.465Z,100500.81
2022-08-27T07:53:24.182Z,100603.88
2022-08-27T07:55:49.501Z,100602.59
2022-08-27T07:57:52.722Z,100571.38
2022-08-27T08:00:08.415Z,100478.72
2022-08-27T08:02:15.448Z,100526.38
2022-08-27T08:04:20.300Z,100526.22
2022-08-27T08:06:23.211Z,100581.78
2022-08-27T08:08:27.912Z,100582.56
2022-08-27T08:10:35.431Z,100590.47
2022-08-27T08:12:40.618Z,100580.81
2022-08-27T08:14:43.712Z,100606.28
2022-08-27T08:16:48.142Z,100607.25
2022-08-27T08:18:51.514Z,100609.91
2022-08-27T08:20:59.988Z,100530.66
2022-08-27T08:23:03.144Z,100502.13
2022-08-27T08:25:06.908Z,100579.00
2022-08-27T08:27:13.326Z,100607.53
2022-08-27T08:29:18.556Z,100491.78
2022-08-27T08:31:24.515Z,100600.91
2022-08-27T08:33:27.787Z,100618.53
2022-08-27T08:35:53.050Z,100600.03
2022-08-27T08:37:55.783Z,100547.50
2022-08-27T08:39:58.541Z,100570.16
2022-08-27T08:42:06.332Z,100564.56
2022-08-27T08:44:44.355Z,100580.00
2022-08-27T08:46:54.499Z,100609.84
2022-08-27T08:49:03.936Z,100606.06
2022-08-27T08:51:34.411Z,100587.91
2022-08-27T08:53:54.439Z,100590.94
2022-08-27T08:56:04.034Z,100601.81
2022-08-27T08:58:34.945Z,100601.41
2022-08-27T09:00:40.349Z,100579.19
2022-08-27T09:02:54.624Z,100591.69
2022-08-27T09:05:05.449Z,100531.91
2022-08-27T09:07:33.250Z,100592.09
2022-08-27T09:10:12.356Z,100588.41
2022-08-27T09:12:25.186Z,100503.34
2022-08-27T09:14:47.227Z,100585.34
2022-08-27T09:16:50.065Z,100544.34
2022-08-27T09:18:53.066Z,100498.72
2022-08-27T09:21:30.508Z,100517.56
2022-08-27T09:23:48.004Z,100574.16
2022-08-27T09:25:50.634Z,100508.09
2022-08-27T09:27:58.272Z,100594.28
2022-08-27T09:30:10.573Z,100579.69
2022-08-27T09:32:33.982Z,100609.41
2022-08-27T09:34:40.516Z,100580.06
2022-08-27T09:37:10.149Z,100602.94
2022-08-27T09:39:14.109Z,100587.63
2022-08-27T09:41:25.806Z,100481.16
2022-08-27T09:43:31.988Z,100580.19
2022-08-27T09:45:36.097Z,100570.94
2022-08-27T09:47:51.860Z,100563.59
2022-08-27T09:50:08.789Z,100595.94
2022-08-27T09:52:37.685Z,100584.13
2022-08-27T09:54:55.742Z,100585.00
2022-08-27T09:56:59.406Z,100586.69
2022-08-27T09:59:06.984Z,100614.41
2022-08-27T10:01:29.172Z,100607.41
2022-08-27T10:03:33.547Z,100618.75
2022-08-27T10:05:52.023Z,100592.81
2022-08-27T10:08:02.345Z,100561.13
2022-08-27T10:10:24.201Z,100623.81
2022-08-27T10:13:02.279Z,100619.53
2022-08-27T10:15:14.348Z,100592.19
2022-08-27T10:18:08.854Z,100629.31
2022-08-27T10:20:35.297Z,100618.09
2022-08-27T10:22:47.949Z,100627.22
2022-08-27T10:25:05.978Z,100569.66
2022-08-27T10:27:49.907Z,100623.88
2022-08-27T10:30:13.008Z,100619.28
2022-08-27T10:32:55.258Z,100632.41
2022-08-27T10:35:18.890Z,100611.91
2022-08-27T10:37:40.375Z,100631.47
2022-08-27T10:40:14.720Z,100629.81
2022-08-27T10:42:29.886Z,100629.25
2022-08-27T10:45:14.312Z,100592.38
2022-08-27T10:47:49.304Z,100629.56
2022-08-27T10:50:20.369Z,100633.53
2022-08-27T10:52:42.130Z,100505.13
2022-08-27T10:55:31.422Z,100639.38
2022-08-27T10:58:29.227Z,100611.25
2022-08-27T11:01:11.032Z,100622.84
2022-08-27T11:03:39.813Z,100651.38
2022-08-27T11:05:50.434Z,100632.41
2022-08-27T11:08:17.936Z,100617.00
2022-08-27T11:10:31.280Z,100652.63
2022-08-27T11:12:46.826Z,100642.06
2022-08-27T11:15:12.742Z,100624.25
2022-08-27T11:17:55.258Z,100618.91
2022-08-27T11:20:11.839Z,100653.91
2022-08-27T11:22:36.982Z,100648.34
2022-08-27T11:24:47.855Z,100616.34
2022-08-27T11:26:56.249Z,100627.88
2022-08-27T11:29:20.088Z,100651.72
2022-08-27T11:31:51.299Z,100622.00
2022-08-27T11:34:19.930Z,100653.31
2022-08-27T11:36:38.584Z,100634.44
2022-08-27T11:39:01.863Z,100643.09
2022-08-27T11:41:51.814Z,100597.63
2022-08-27T11:43:55.082Z,100615.41
2022-08-27T11:46:03.247Z,100608.59
2022-08-27T11:48:34.129Z,100633.34
2022-08-27T11:50:36.785Z,100632.94
2022-08-27T11:52:42.791Z,100619.31
2022-08-27T11:55:09.388Z,100569.88
2022-08-27T11:57:31.245Z,100633.59
2022-08-27T11:59:35.272Z,100587.09
2022-08-27T12:01:40.662Z,100586.84
2022-08-27T12:03:43.467Z,100606.41
2022-08-27T12:05:53.824Z,100631.72
2022-08-27T12:07:57.729Z,100617.88
2022-08-27T12:11:15.484Z,100628.94
2022-08-27T12:13:41.756Z,100599.59
2022-08-27T12:16:16.601Z,100628.59
2022-08-27T12:18:37.130Z,100626.16
2022-08-27T12:21:15.918Z,100602.69
2022-08-27T12:24:08.293Z,100625.16
2022-08-27T12:26:20.383Z,100618.28
2022-08-27T12:28:26.978Z,100602.03
2022-08-27T12:30:40.222Z,100566.41
2022-08-27T12:32:46.436Z,100611.94
2022-08-27T12:35:15.789Z,100614.16
2022-08-27T12:37:28.323Z,100609.28
2022-08-27T12:39:36.905Z,100518.53
2022-08-27T12:41:48.005Z,100607.91
2022-08-27T12:43:50.723Z,100584.09
2022-08-27T12:46:19.203Z,100591.56
2022-08-27T12:48:27.301Z,100609.25
2022-08-27T12:50:31.069Z,100498.06
2022-08-27T12:52:42.195Z,100609.88
2022-08-27T12:55:07.041Z,100588.41
2022-08-27T12:57:43.913Z,100507.13
2022-08-27T13:00:13.254Z,100572.59
2022-08-27T13:03:15.739Z,100601.03
2022-08-27T13:05:23.188Z,100579.69
2022-08-27T13:07:37.900Z,100611.56
2022-08-27T13:09:40.958Z,100563.72
2022-08-27T13:11:49.575Z,100603.25
2022-08-27T13:13:53.224Z,100594.38
2022-08-27T13:16:01.760Z,100533.81
2022-08-27T13:18:07.753Z,100593.75
2022-08-27T13:20:19.652Z,100590.06
2022-08-27T13:22:32.480Z,100545.56
2022-08-27T13:24:49.969Z,100573.97
2022-08-27T13:26:53.809Z,100604.31
2022-08-27T13:29:03.046Z,100486.66
2022-08-27T13:31:09.469Z,100582.72
2022-08-27T13:33:37.031Z,100593.72
2022-08-27T13:35:43.600Z,100586.09
2022-08-27T13:37:51.581Z,100596.00
2022-08-27T13:39:56.875Z,100560.50
2022-08-27T13:42:02.109Z,100586.16
2022-08-27T13:44:13.006Z,100544.50
2022-08-27T13:46:21.347Z,100565.25
2022-08-27T13:48:24.552Z,100578.75
2022-08-27T13:50:31.372Z,100587.47
2022-08-27T13:52:58.294Z,100592.34
2022-08-27T13:55:17.104Z,100569.88
2022-08-27T13:57:31.641Z,100594.72
2022-08-27T13:59:42.996Z,100594.63
2022-08-27T14:02:02.090Z,100577.19
2022-08-27T14:04:09.113Z,100594.19
2022-08-27T14:06:23.079Z,100533.69
2022-08-27T14:08:33.682Z,100570.41
2022-08-27T14:10:44.103Z,100588.59
2022-08-27T14:12:56.356Z,100590.91
2022-08-27T14:15:38.608Z,100593.06
2022-08-27T14:17:41.517Z,100592.91
2022-08-27T14:19:45.068Z,100494.97
2022-08-27T14:21:47.671Z,100578.78
2022-08-27T14:23:50.353Z,100519.84
2022-08-27T14:26:00.002Z,100571.59
2022-08-27T14:28:02.835Z,100578.78
2022-08-27T14:30:13.645Z,100595.63
2022-08-27T14:32:19.117Z,100559.63
2022-08-27T14:34:22.582Z,100522.47
2022-08-27T14:36:35.076Z,100574.41
2022-08-27T14:38:43.095Z,100598.56
2022-08-27T14:40:49.205Z,100571.38
2022-08-27T14:42:51.882Z,100473.69
2022-08-27T14:44:54.437Z,100565.13
2022-08-27T14:47:00.109Z,100471.91
2022-08-27T14:49:14.405Z,100510.38
2022-08-27T14:51:27.785Z,100592.22
2022-08-27T14:53:31.394Z,100596.94
2022-08-27T14:55:34.635Z,100590.91
2022-08-27T14:57:37.315Z,100586.97
2022-08-27T14:59:39.910Z,100558.84
2022-08-27T15:01:42.767Z,100473.94
2022-08-27T15:03:50.116Z,100588.88
2022-08-27T15:05:57.367Z,100602.53
2022-08-27T15:08:00.811Z,100568.22
2022-08-27T15:10:04.008Z,100510.94
2022-08-27T15:12:07.489Z,100596.09
2022-08-27T15:14:33.065Z,100615.94
2022-08-27T15:16:40.009Z,100622.69
2022-08-27T15:18:42.767Z,100610.09
2022-08-27T15:20:56.433Z,100636.28
2022-08-27T15:22:59.132Z,100516.97
2022-08-27T15:25:13.901Z,100626.75
2022-08-27T15:27:17.031Z,100642.03
2022-08-27T15:29:22.059Z,100505.81
2022-08-27T15:31:24.980Z,100473.28
2022-08-27T15:33:27.580Z,100549.25
2022-08-27T15:35:32.154Z,100601.25
2022-08-27T15:37:36.154Z,100625.72
2022-08-27T15:39:38.686Z,100618.69
2022-08-27T15:42:11.421Z,100631.59
2022-08-27T15:44:06.190Z,100611.44
2022-08-27T15:46:10.266Z,100578.53
2022-08-27T15:48:13.222Z,100588.44
2022-08-27T15:50:16.328Z,100591.84
2022-08-27T15:52:23.162Z,100609.44
2022-08-27T15:54:26.439Z,100632.81
2022-08-27T15:56:33.905Z,100564.13
2022-08-27T15:58:38.598Z,100640.47
2022-08-27T16:00:43.042Z,100608.81
2022-08-27T16:02:46.435Z,100624.34
2022-08-27T16:04:49.566Z,100582.53
2022-08-27T16:06:52.870Z,100648.19
2022-08-27T16:08:55.436Z,100552.44
2022-08-27T16:10:58.269Z,100559.25
2022-08-27T16:13:02.158Z,100628.06
2022-08-27T16:15:06.560Z,100611.81
2022-08-27T16:17:09.352Z,100600.34
2022-08-27T16:19:16.632Z,100575.13
2022-08-27T16:21:19.825Z,100635.25
2022-08-27T16:23:25.418Z,100592.19
2022-08-27T16:25:28.128Z,100632.25
2022-08-27T16:27:30.854Z,100590.94
2022-08-27T16:29:33.652Z,100531.50
2022-08-27T16:31:37.586Z,100628.81
2022-08-27T16:33:42.506Z,100622.19
2022-08-27T16:35:45.551Z,100631.38
2022-08-27T16:37:48.257Z,100588.59
2022-08-27T16:39:55.048Z,100619.69
2022-08-27T16:41:57.761Z,100607.88
2022-08-27T16:44:00.750Z,100612.09
2022-08-27T16:46:03.608Z,100606.75
2022-08-27T16:48:24.966Z,100621.56
2022-08-27T16:50:34.147Z,100624.09
2022-08-27T16:52:37.137Z,100592.81
2022-08-27T16:54:39.956Z,100631.66
2022-08-27T16:56:43.738Z,100568.81
2022-08-27T16:58:50.752Z,100657.22
2022-08-27T17:00:58.909Z,100562.91
2022-08-27T17:03:02.070Z,100650.81
2022-08-27T17:05:30.574Z,100565.03
2022-08-27T17:07:28.303Z,100558.34
2022-08-27T17:09:36.521Z,100658.50
2022-08-27T17:11:42.808Z,100661.03
2022-08-27T17:13:49.898Z,100639.72
2022-08-27T17:15:53.202Z,100616.19
2022-08-27T17:17:57.899Z,100551.88
2022-08-27T17:20:01.076Z,100657.69
2022-08-27T17:22:25.636Z,100674.41
2022-08-27T17:24:28.879Z,100669.38
2022-08-27T17:26:33.835Z,100671.88
2022-08-27T17:28:40.908Z,100700.00
2022-08-27T17:30:43.872Z,100669.50
2022-08-27T17:32:47.850Z,100699.06
2022-08-27T17:34:51.481Z,100682.78
2022-08-27T17:36:54.410Z,100607.66
2022-08-27T17:38:57.386Z,100700.41
2022-08-27T17:41:19.275Z,100690.31
2022-08-27T17:43:23.270Z,100685.44
2022-08-27T17:45:25.930Z,100686.53
2022-08-27T17:47:29.946Z,100689.38
2022-08-27T17:49:32.906Z,100699.47
2022-08-27T17:51:36.105Z,100652.88
2022-08-27T17:53:47.712Z,100717.03
2022-08-27T17:55:50.602Z,100627.63
2022-08-27T17:57:53.410Z,100671.53
2022-08-27T18:00:01.470Z,100693.19
2022-08-27T18:02:22.273Z,100727.00
2022-08-27T18:04:26.178Z,100654.72
2022-08-27T18:06:29.627Z,100632.00
2022-08-27T18:08:32.305Z,100686.88
2022-08-27T18:10:36.444Z,100732.28
2022-08-27T18:12:40.946Z,100723.00
2022-08-27T18:14:45.048Z,100647.78
2022-08-27T18:16:47.761Z,100680.56
2022-08-27T18:18:51.165Z,100733.25
2022-08-27T18:21:47.112Z,100729.09
2022-08-27T18:24:02.174Z,100714.50
2022-08-27T18:26:08.794Z,100735.53
2022-08-27T18:29:04.466Z,100737.22
2022-08-27T18:31:31.421Z,100743.72
2022-08-27T18:33:35.053Z,100672.00
2022-08-27T18:35:38.776Z,100736.25
2022-08-27T18:37:41.419Z,100593.63
2022-08-27T18:39:44.789Z,100731.91
2022-08-27T18:41:51.354Z,100705.63
2022-08-27T18:43:54.177Z,100749.91
2022-08-27T18:45:57.051Z,100694.53
2022-08-27T18:48:00.613Z,100711.84
2022-08-27T18:50:17.512Z,100759.66
2022-08-27T18:52:22.610Z,100765.69
2022-08-27T18:54:27.319Z,100739.78
2022-08-27T18:56:30.010Z,100661.88
2022-08-27T18:58:32.824Z,100757.84
2022-08-27T19:00:35.552Z,100669.97
2022-08-27T19:02:38.636Z,100753.69
2022-08-27T19:04:42.091Z,100742.22
2022-08-27T19:06:54.637Z,100758.78
2022-08-27T19:08:57.378Z,100720.66
2022-08-27T19:11:02.316Z,100756.59
2022-08-27T19:13:04.979Z,100773.72
2022-08-27T19:15:09.111Z,100683.44
2022-08-27T19:17:33.621Z,100735.09
2022-08-27T19:19:36.236Z,100692.94
2022-08-27T19:21:38.936Z,100739.97
2022-08-27T19:23:42.237Z,100698.22
2022-08-27T19:25:48.521Z,100685.22
2022-08-27T19:27:52.956Z,100686.72
2022-08-27T19:29:56.158Z,100761.75
2022-08-27T19:31:58.805Z,100702.16
2022-08-27T19:34:05.175Z,100736.03
2022-08-27T19:36:15.870Z,100732.66
2022-08-27T19:38:18.805Z,100701.69
2022-08-27T19:40:22.596Z,100760.25
2022-08-27T19:42:25.346Z,100755.31
2022-08-27T19:44:28.437Z,100691.53
2022-08-27T19:46:35.339Z,100671.56
2022-08-27T19:48:37.960Z,100660.50
2022-08-27T19:50:41.621Z,100769.56
2022-08-27T19:52:44.573Z,100765.50
2022-08-27T19:55:10.274Z,100732.53
2022-08-27T19:57:09.963Z,100790.03
2022-08-27T19:59:21.217Z,100780.66
2022-08-27T20:01:29.457Z,100791.75
2022-08-27T20:03:32.083Z,100751.66
2022-08-27T20:05:35.359Z,100787.00
2022-08-27T20:07:38.122Z,100701.47
2022-08-27T20:09:42.425Z,100794.31
2022-08-27T20:11:50.524Z,100670.69
2022-08-27T20:13:53.122Z,100795.09
2022-08-27T20:15:55.702Z,100701.56
2022-08-27T20:17:59.754Z,100765.09
2022-08-27T20:20:02.883Z,100704.84
2022-08-27T20:22:56.753Z,100802.03
2022-08-27T20:24:59.411Z,100741.84
2022-08-27T20:27:02.013Z,100789.66
2022-08-27T20:29:04.915Z,100804.59
2022-08-27T20:31:08.296Z,100703.25
2022-08-27T20:33:10.935Z,100737.47
2022-08-27T20:35:16.837Z,100715.13
2022-08-27T20:37:20.809Z,100675.94
2022-08-27T20:39:23.652Z,100706.69
2022-08-27T20:41:26.987Z,100717.78
2022-08-27T20:43:30.452Z,100811.69
2022-08-27T20:45:33.074Z,100693.44
2022-08-27T20:47:36.257Z,100812.50
2022-08-27T20:49:41.474Z,100772.59
2022-08-27T20:52:02.066Z,100795.97
2022-08-27T20:54:06.073Z,100741.00
2022-08-27T20:56:08.827Z,100814.38
2022-08-27T20:58:29.802Z,100784.78
2022-08-27T21:00:33.973Z,100814.84
2022-08-27T21:02:36.713Z,100711.84
2022-08-27T21:04:43.517Z,100811.66
2022-08-27T21:06:46.177Z,100702.81
2022-08-27T21:08:48.860Z,100686.97
2022-08-27T21:10:55.231Z,100766.34
2022-08-27T21:12:57.941Z,100707.78
2022-08-27T21:15:04.919Z,100800.63
2022-08-27T21:17:07.963Z,100790.63
2022-08-27T21:19:13.277Z,100794.09
2022-08-27T21:21:16.179Z,100718.69
2022-08-27T21:23:18.961Z,100820.44
2022-08-27T21:25:24.576Z,100766.28
2022-08-27T21:27:27.863Z,100803.53
2022-08-27T21:29:34.247Z,100783.41
2022-08-27T21:31:37.038Z,100796.28
2022-08-27T21:33:40.142Z,100793.50
2022-08-27T21:35:42.829Z,100797.97
2022-08-27T21:37:45.461Z,100721.84
2022-08-27T21:39:48.051Z,100695.72
2022-08-27T21:41:57.534Z,100783.19
2022-08-27T21:44:00.393Z,100784.66
2022-08-27T21:46:02.995Z,100771.50
2022-08-27T21:48:05.834Z,100775.50
2022-08-27T21:50:09.898Z,100744.59
2022-08-27T21:52:12.539Z,100797.97
2022-08-27T21:54:15.602Z,100805.81
2022-08-27T21:56:19.319Z,100706.22
2022-08-27T21:58:26.445Z,100762.41
2022-08-27T22:00:29.417Z,100812.53
2022-08-27T22:02:40.663Z,100809.00
2022-08-27T22:04:43.575Z,100691.19
2022-08-27T22:06:46.210Z,100704.66
2022-08-27T22:08:49.182Z,100723.81
2022-08-27T22:10:57.908Z,100800.16
2022-08-27T22:13:00.920Z,100745.19
2022-08-27T22:15:06.287Z,100824.59
2022-08-27T22:17:08.944Z,100777.25
2022-08-27T22:19:11.570Z,100797.16
2022-08-27T22:21:14.203Z,100711.44
2022-08-27T22:23:19.187Z,100764.59
2022-08-27T22:25:22.550Z,100698.78
2022-08-27T22:27:26.650Z,100772.81
2022-08-27T22:29:30.685Z,100715.72
2022-08-27T22:31:33.624Z,100793.50
2022-08-27T22:33:36.327Z,100807.06
2022-08-27T22:35:39.518Z,100740.25
2022-08-27T22:37:42.741Z,100730.47
2022-08-27T22:39:45.421Z,100802.22
2022-08-27T22:41:49.281Z,100769.94
2022-08-27T22:43:51.952Z,100716.22
2022-08-27T22:45:59.338Z,100704.84
2022-08-27T22:48:02.161Z,100766.34
2022-08-27T22:50:06.377Z,100809.63
2022-08-27T22:52:09.077Z,100788.66
2022-08-27T22:54:11.707Z,100799.25
2022-08-27T22:56:15.257Z,100718.47
2022-08-27T22:58:18.531Z,100797.16
2022-08-27T23:00:34.531Z,100778.97
2022-08-27T23:02:37.627Z,100732.34
2022-08-27T23:04:54.755Z,100732.84
2022-08-27T23:07:01.132Z,100803.25
2022-08-27T23:09:05.818Z,100666.72
2022-08-27T23:11:08.545Z,100716.69
2022-08-27T23:13:12.946Z,100777.69
2022-08-27T23:15:18.546Z,100805.13
2022-08-27T23:17:21.430Z,100797.97
2022-08-27T23:19:23.974Z,100715.91
2022-08-27T23:21:36.834Z,100786.09
2022-08-27T23:23:39.588Z,100787.31
2022-08-27T23:26:01.101Z,100699.56
2022-08-27T23:28:06.577Z,100809.78
2022-08-27T23:30:11.218Z,100814.53
2022-08-27T23:32:14.258Z,100781.94
2022-08-27T23:34:17.589Z,100730.19
2022-08-27T23:36:21.571Z,100771.94
2022-08-27T23:38:24.153Z,100780.34
2022-08-27T23:40:28.206Z,100783.53
2022-08-27T23:42:30.831Z,100762.47
2022-08-27T23:44:33.704Z,100695.41
2022-08-27T23:47:55.453Z,100824.81
2022-08-27T23:49:58.088Z,100786.78
2022-08-27T23:52:00.742Z,100726.88
2022-08-27T23:54:03.426Z,100794.72
2022-08-27T23:56:06.576Z,100780.28
2022-08-27T23:58:34.535Z,100798.00
